Flight Track Log - Related Links

Times and Time Zones

All times are in EDT time to prevent confusion due to time zone crossing. See the SWA3143 flight status page for this flight to view local times or setup timezone preferences in your user account.

Time Position Orientation Groundspeed Altitude Reporting Facility
EDT Latitude Longitude Course Direction KTS MPH feet Rate Location/Type
Sat 07:36:41 PM 32.8667 -96.8833 320° Northwest 150 173 2,400  Level Dallas / Fort Worth TRACON
Sat 07:37:41 PM 32.9167 -96.9333 320° Northwest 206 237 5,300 2,900 Climbing Dallas / Fort Worth TRACON
Sat 07:38:41 PM 32.8667 -96.9833 220° Southwest 283 326 8,200 3,033 Climbing Dallas / Fort Worth TRACON
Sat 07:40:43 PM 32.6908 -97.0086 187° South 331 381 14,500 2,901 Climbing Fort Worth Center
Sat 07:41:43 PM 32.6011 -97.0189 186° South 360 414 17,000 2,650 Climbing Fort Worth Center
Sat 07:42:43 PM 32.4864 -97.0342 186° South 375 432 19,800 1,500 Climbing Fort Worth Center
Sat 07:43:43 PM 32.3839 -97.0469 186° South 399 459 20,000 100 Climbing Fort Worth Center
Sat 07:44:43 PM 32.2608 -97.0619 186° South 411 473 20,000  Level Fort Worth Center
Sat 07:45:43 PM 32.1544 -97.0625 180° South 422 486 20,000  Level Fort Worth Center
Sat 07:46:43 PM 32.0375 -97.0653 181° South 422 486 20,000 -50 Level Fort Worth Center
Sat 07:47:43 PM 31.9100 -97.0708 182° South 422 486 19,900 -650 Descending Fort Worth Center
Sat 07:48:43 PM 31.7994 -97.0783 183° South 412 474 18,700 -950 Descending Fort Worth Center
Sat 07:49:43 PM 31.6867 -97.0764 179° South 406 467 18,000 -304 Descending Fort Worth Center
Sat 07:51:01 PM 31.5583 -97.0825 182° South 389 448 18,000  Level Houston Center
Sat 07:52:02 PM 31.4558 -97.1128 194° South 379 436 18,000 -541 Level Houston Center
Sat 07:53:03 PM 31.3583 -97.1500 198° South 366 421 16,900 -1,279 Descending Houston Center
Sat 07:54:04 PM 31.2675 -97.1869 199° South 346 398 15,400 -1,415 Descending Houston Center
Sat 07:55:06 PM 31.1772 -97.2211 198° South 339 390 14,000 -1,122 Descending Houston Center
Sat 07:56:07 PM 31.0728 -97.2622 199° South 338 389 13,100 -443 Descending Houston Center
Sat 07:57:08 PM 30.9839 -97.2978 199° South 339 390 13,100 -49 Level Houston Center
Sat 07:58:09 PM 30.8939 -97.3317 198° South 350 403 13,000 -146 Descending Houston Center
Sat 07:59:11 PM 30.8083 -97.3639 198° South 326 375 12,800 -1,366 Descending Houston Center
Sat 08:00:12 PM 30.7356 -97.4100 209° Southwest 301 346 10,200 -1,918 Descending Houston Center
Sat 08:01:13 PM 30.6617 -97.4550 208° Southwest 298 343 8,900 -1,475 Descending Houston Center
Sat 08:02:14 PM 30.5911 -97.4992 208° Southwest 289 333 7,200 -1,525 Descending Houston Center
Sat 08:03:15 PM 30.5194 -97.5428 208° Southwest 288 331 5,800 -1,463 Descending Houston Center
Sat 08:04:17 PM 30.4522 -97.5839 208° Southwest 276 318 4,200 -1,610 Descending Houston Center
Sat 08:05:18 PM 30.3858 -97.6236 207° Southwest 268 308 2,500 -1,082 Descending Houston Center
Sat 08:06:19 PM 30.3236 -97.6617 208° Southwest 258 297 2,000 -492 Descending Houston Center

Login

Don't have an account? Register now (free) for customized features, flight alerts, and more!